Data for 12/26/2006

Time Sea-Level Adjusted Pressure Absolute Pressure Temperature Relative Humidity Dew Point   
(mb) (inHg) (mb) (inHg) (C) (F) (%) (C) (F)
00:05 1017 30.03 846 24.98 3.8 38.8 62 -2.9 26.8
00:10 1017 30.03 846 24.98 3.8 38.8 62 -2.8 27
00:15 1017 30.03 846 24.98 3.7 38.7 62 -2.8 26.9
00:20 1017 30.03 846 24.98 3.7 38.6 64 -2.5 27.5
00:25 1017 30.03 846 24.98 3.2 37.8 68 -2.1 28.2
00:30 1017 30.03 846 24.98 2.7 36.9 70 -2.3 27.9
00:35 1017 30.03 846 24.98 2.5 36.5 70 -2.4 27.7
00:40 1017 30.03 846 24.98 2.6 36.7 69 -2.5 27.4
00:45 1017 30.03 846 24.98 2.9 37.2 67 -2.8 27
00:50 1017 30.03 846 24.98 2.9 37.3 66 -2.8 26.9
00:55 1017 30.03 846 24.98 3.1 37.5 66 -2.7 27.2
01:00 1017 30.03 846 24.98 3.1 37.7 66 -2.6 27.4
01:05 1017 30.03 846 24.98 2.9 37.3 67 -2.5 27.4
01:10 1017 30.03 846 24.98 2.7 36.9 68 -2.6 27.4
01:15 1017 30.03 846 24.98 2.6 36.7 69 -2.6 27.4
01:20 1016 30 846 24.98 2.5 36.6 69 -2.5 27.4
01:25 1016 30 846 24.98 2.6 36.7 67 -2.8 27
01:30 1016 30 846 24.98 2.9 37.2 66 -2.9 26.8
01:35 1016 30 846 24.98 3.1 37.6 65 -2.9 26.8
01:40 1016 30 845 24.95 3.2 37.8 64 -2.9 26.8
01:45 1016 30 845 24.95 3.2 37.8 64 -2.9 26.8
01:50 1016 30 845 24.95 3.3 37.9 64 -3 26.6
01:55 1016 30 845 24.95 3.3 38 63 -3 26.5
02:00 1016 30 845 24.95 3.4 38.1 63 -3 26.6
02:05 1016 30 845 24.95 3.4 38.2 62 -3.1 26.4
02:10 1016 30 845 24.95 3.6 38.5 60 -3.4 26
02:15 1016 30 845 24.95 4.1 39.3 59 -3.3 26
02:20 1016 30 845 24.95 4.3 39.7 59 -3.1 26.4
02:25 1016 30 845 24.95 4 39.1 60 -3.1 26.4
02:30 1016 30 845 24.95 4 39.2 60 -3.2 26.3
02:35 1016 30 845 24.95 4.3 39.7 57 -3.4 25.8
02:40 1016 30 845 24.95 4.5 40.1 57 -3.2 26.3
02:45 1016 30 845 24.95 4.4 40 59 -2.9 26.8
02:50 1016 30 845 24.95 4.3 39.7 58 -3.3 26.1
02:55 1016 30 845 24.95 4.5 40.1 57 -3.2 26.2
03:00 1016 30 845 24.95 4.6 40.4 57 -3.2 26.2
03:05 1016 30 845 24.95 4.7 40.5 56 -3.2 26.2
03:10 1016 30 845 24.95 4.8 40.6 57 -3 26.5
03:15 1016 30 845 24.95 4.7 40.4 57 -3.1 26.5
03:20 1016 30 845 24.95 4.5 40.1 58 -2.9 26.7
03:25 1016 30 845 24.95 4.4 39.9 59 -2.9 26.8
03:30 1016 30 845 24.95 4.2 39.6 58 -3.3 26
03:35 1016 30 845 24.95 4.5 40.1 58 -3.1 26.4
03:40 1016 30 845 24.95 4.4 39.9 60 -2.8 27
03:45 1016 30 845 24.95 3.9 39.1 63 -2.6 27.4
03:50 1016 30 845 24.95 3.6 38.5 64 -2.6 27.3
03:55 1016 30 845 24.95 3.4 38.1 65 -2.7 27.2
04:00 1016 30 845 24.95 3.5 38.3 62 -3.1 26.5
04:05 1016 30 845 24.95 3.9 39.1 56 -4.2 24.5
04:10 1016 30 845 24.95 4.6 40.3 54 -3.8 25.1
04:15 1016 30 845 24.95 4.8 40.7 54 -3.8 25.1
04:20 1016 30 845 24.95 4.9 40.9 54 -3.7 25.3
04:25 1016 30 845 24.95 4.9 40.8 54 -3.6 25.5
04:30 1016 30 845 24.95 4.8 40.7 54 -3.7 25.4
04:35 1016 30 845 24.95 4.9 40.8 54 -3.7 25.3
04:40 1015 29.97 845 24.95 4.9 40.7 54 -3.8 25.2
04:45 1015 29.97 845 24.95 4.9 40.9 54 -3.5 25.7
04:50 1015 29.97 845 24.95 4.8 40.7 55 -3.3 26
04:55 1015 29.97 845 24.95 4.8 40.6 55 -3.4 25.9
05:00 1015 29.97 844 24.92 4.8 40.7 55 -3.5 25.7
05:05 1015 29.97 844 24.92 4.9 40.8 56 -3.2 26.3
05:10 1015 29.97 844 24.92 4.8 40.6 54 -3.8 25.1
05:15 1015 29.97 844 24.92 5 41 54 -3.5 25.6
05:20 1015 29.97 844 24.92 5 40.9 54 -3.6 25.6
05:25 1015 29.97 844 24.92 4.9 40.8 55 -3.4 25.9
05:30 1015 29.97 844 24.92 4.7 40.5 56 -3.3 26.1
05:35 1015 29.97 844 24.92 4.7 40.5 56 -3.2 26.2
05:40 1015 29.97 844 24.92 4.8 40.7 56 -3.2 26.3
05:45 1015 29.97 844 24.92 4.8 40.6 57 -3.1 26.5
05:50 1015 29.97 844 24.92 4.6 40.3 59 -2.8 27
05:55 1015 29.97 844 24.92 4.4 39.9 59 -2.9 26.7
06:00 1015 29.97 844 24.92 4.3 39.7 59 -3 26.7
06:05 1015 29.97 844 24.92 4.2 39.5 59 -3.1 26.5
06:10 1015 29.97 844 24.92 4.1 39.4 60 -2.9 26.8
06:15 1015 29.97 844 24.92 4 39.1 60 -3 26.5
06:20 1015 29.97 844 24.92 4 39.2 60 -3 26.6
06:25 1015 29.97 844 24.92 4 39.2 60 -3.1 26.4
06:30 1015 29.97 844 24.92 4.1 39.3 58 -3.3 26
06:35 1015 29.97 844 24.92 4.2 39.6 59 -3.2 26.3
06:40 1015 29.97 844 24.92 4.2 39.6 59 -3.1 26.5
06:45 1015 29.97 844 24.92 4.2 39.5 59 -3.1 26.4
06:50 1015 29.97 844 24.92 4.1 39.5 59 -3.2 26.3
06:55 1015 29.97 844 24.92 4.1 39.4 61 -2.7 27.2
07:00 1015 29.97 844 24.92 3.7 38.6 62 -2.9 26.8
07:05 1015 29.97 844 24.92 3.4 38.1 63 -3 26.6
07:10 1015 29.97 844 24.92 3.4 38.2 63 -2.9 26.8
07:15 1015 29.97 844 24.92 3.5 38.2 63 -2.9 26.8
07:20 1015 29.97 844 24.92 3.4 38.2 63 -3 26.6
07:25 1015 29.97 844 24.92 3.5 38.4 62 -3.1 26.4
07:30 1015 29.97 844 24.92 3.7 38.7 61 -3.2 26.2
07:35 1015 29.97 844 24.92 3.9 39.1 61 -3 26.7
07:40 1014 29.94 844 24.92 3.8 38.9 61 -3.1 26.4
07:45 1014 29.94 844 24.92 3.8 38.8 59 -3.4 25.9
07:50 1014 29.94 844 24.92 4 39.3 58 -3.6 25.6
07:55 1014 29.94 843 24.89 4.3 39.7 58 -3.4 25.9
08:00 1014 29.94 843 24.89 4.2 39.5 59 -3.2 26.3
08:05 1014 29.94 844 24.92 3.6 38.5 62 -3 26.6
08:10 1014 29.94 844 24.92 3.2 37.8 61 -3.5 25.8
08:15 1014 29.94 844 24.92 3.6 38.5 61 -3.2 26.3
08:20 1014 29.94 844 24.92 3.4 38.2 62 -3.1 26.5
08:25 1015 29.97 844 24.92 3.4 38.2 62 -3.1 26.5
08:30 1014 29.94 844 24.92 3.4 38.2 62 -3.2 26.2
08:35 1015 29.97 844 24.92 3.4 38.2 62 -3.2 26.3
08:40 1014 29.94 844 24.92 3.4 38.1 62 -3.1 26.3
08:45 1014 29.94 844 24.92 3.3 38 61 -3.4 25.8
08:50 1014 29.94 844 24.92 3.5 38.3 61 -3.3 26.1
08:55 1014 29.94 844 24.92 3.5 38.2 62 -3.1 26.5
09:00 1014 29.94 843 24.89 3.5 38.3 61 -3.3 26.1
09:05 1014 29.94 843 24.89 3.5 38.3 62 -3.1 26.3
09:10 1014 29.94 843 24.89 3.5 38.4 62 -3 26.6
09:15 1014 29.94 843 24.89 3.3 38 63 -3 26.7
09:20 1014 29.94 843 24.89 3.3 38 62 -3.3 26.1
09:25 1014 29.94 843 24.89 3.4 38.2 63 -3 26.6
09:30 1014 29.94 843 24.89 3.5 38.2 62 -3.2 26.3
09:35 1014 29.94 843 24.89 3.5 38.4 62 -3.1 26.5
09:40 1014 29.94 843 24.89 3.8 38.8 59 -3.5 25.6
09:45 1014 29.94 843 24.89 4.1 39.4 58 -3.3 26
09:50 1014 29.94 843 24.89 4.4 39.9 57 -3.3 26
09:55 1014 29.94 843 24.89 4.5 40 56 -3.5 25.7
10:00 1014 29.94 843 24.89 4.7 40.5 54 -3.9 25
10:05 1014 29.94 843 24.89 5.1 41.1 53 -3.7 25.3
10:10 1014 29.94 843 24.89 5.1 41.2 52 -3.9 24.9
10:15 1014 29.94 843 24.89 5.1 41.2 53 -3.8 25.2
10:20 1014 29.94 843 24.89 5.1 41.1 53 -3.6 25.5
10:25 1014 29.94 843 24.89 5.1 41.3 52 -3.9 25
10:30 1014 29.94 843 24.89 5.2 41.4 51 -4 24.9
10:35 1014 29.94 843 24.89 5.2 41.3 52 -4 24.8
10:40 1014 29.94 843 24.89 5.2 41.4 52 -3.9 25
10:45 1014 29.94 843 24.89 5.3 41.6 51 -4 24.8
10:50 1014 29.94 843 24.89 5.6 42 49 -4.4 24.1
10:55 1014 29.94 843 24.89 5.7 42.3 50 -3.9 25
11:00 1014 29.94 843 24.89 5.6 42 49 -4.3 24.3
11:05 1014 29.94 843 24.89 5.7 42.3 50 -4 24.9
11:10 1014 29.94 843 24.89 5.4 41.8 52 -3.7 25.4
11:15 1014 29.94 843 24.89 5.8 42.4 48 -4.4 24.1
11:20 1013 29.91 843 24.89 6 42.7 48 -4.4 24.2
11:25 1013 29.91 843 24.89 5.8 42.5 49 -4.1 24.6
11:30 1013 29.91 842 24.86 5.8 42.4 49 -4 24.8
11:35 1013 29.91 842 24.86 5.8 42.5 48 -4.2 24.4
11:40 1013 29.91 842 24.86 5.9 42.5 50 -3.7 25.3
11:45 1013 29.91 842 24.86 5.8 42.4 51 -3.6 25.6
11:50 1013 29.91 842 24.86 5.6 42.2 50 -3.9 25
11:55 1013 29.91 842 24.86 5.8 42.4 50 -3.8 25.1
12:00 1013 29.91 842 24.86 5.8 42.5 49 -4 24.8
12:05 1013 29.91 842 24.86 5.9 42.6 50 -3.8 25.2
12:10 1013 29.91 842 24.86 5.9 42.6 49 -3.9 24.9
12:15 1013 29.91 842 24.86 6.3 43.3 46 -4.4 24.2
12:20 1013 29.91 842 24.86 6.6 43.8 46 -4.2 24.4
12:25 1012 29.88 842 24.86 6.8 44.2 45 -4.4 24
12:30 1012 29.88 842 24.86 6.7 44.1 45 -4.4 24.1
12:35 1012 29.88 842 24.86 6.6 43.9 45 -4.3 24.2
12:40 1012 29.88 841 24.83 6.4 43.6 46 -4.2 24.4
12:45 1012 29.88 841 24.83 6.3 43.4 47 -4.2 24.5
12:50 1012 29.88 841 24.83 6.5 43.6 44 -4.8 23.4
12:55 1012 29.88 841 24.83 6.7 44.1 44 -4.8 23.4
13:00 1012 29.88 841 24.83 6.9 44.3 43 -4.7 23.5
13:05 1012 29.88 841 24.83 6.9 44.5 45 -4 24.7
13:10 1012 29.88 841 24.83 6.8 44.2 46 -3.9 25
13:15 1012 29.88 841 24.83 6.5 43.7 47 -4 24.8
13:20 1012 29.88 841 24.83 6.4 43.5 48 -3.9 25
13:25 1012 29.88 841 24.83 6.3 43.3 49 -3.7 25.3
13:30 1012 29.88 841 24.83 6.3 43.4 46 -4.4 24.1
13:35 1012 29.88 841 24.83 6.5 43.7 47 -4 24.8
13:40 1011 29.85 841 24.83 6.3 43.4 46 -4.4 24.1
13:45 1011 29.85 841 24.83 6.5 43.7 47 -3.9 25
13:50 1011 29.85 841 24.83 6.5 43.6 47 -4.1 24.6
13:55 1011 29.85 840 24.81 6.6 43.9 47 -4 24.8
14:00 1011 29.85 840 24.81 6.7 44.1 46 -4 24.7
14:05 1011 29.85 840 24.81 6.8 44.3 45 -4.3 24.3
14:10 1011 29.85 840 24.81 7 44.5 46 -3.8 25.1
14:15 1011 29.85 840 24.81 6.8 44.2 47 -3.6 25.5
14:20 1011 29.85 840 24.81 6.7 44.1 45 -4.3 24.3
14:25 1011 29.85 840 24.81 6.6 43.9 48 -3.5 25.6
14:30 1011 29.85 840 24.81 6.4 43.6 48 -3.8 25.1
14:35 1011 29.85 840 24.81 6.4 43.6 50 -3.3 26
14:40 1011 29.85 840 24.81 6.4 43.5 50 -3.3 26.1
14:45 1010 29.83 840 24.81 6.2 43.2 52 -2.8 26.9
14:50 1010 29.83 840 24.81 6 42.7 52 -3.3 26.1
14:55 1010 29.83 840 24.81 6.3 43.3 47 -4.1 24.7
15:00 1010 29.83 840 24.81 6.7 44 48 -3.7 25.4
15:05 1010 29.83 840 24.81 6.8 44.3 46 -3.9 25
15:10 1010 29.83 839 24.78 6.7 44.1 49 -3.3 26
15:15 1010 29.83 839 24.78 6.5 43.8 50 -3.2 26.3
15:20 1010 29.83 839 24.78 6.5 43.8 50 -3 26.6
15:25 1010 29.83 839 24.78 6.3 43.3 51 -3 26.7
15:30 1010 29.83 839 24.78 6.3 43.4 50 -3.4 25.9
15:35 1010 29.83 839 24.78 6.3 43.4 51 -3.2 26.3
15:40 1010 29.83 839 24.78 6.2 43.2 51 -3 26.6
15:45 1010 29.83 839 24.78 6.2 43.2 52 -3 26.7
15:50 1010 29.83 839 24.78 6.2 43.2 51 -3 26.6
15:55 1010 29.83 839 24.78 6.3 43.3 51 -3 26.6
16:00 1010 29.83 839 24.78 6.3 43.3 53 -2.6 27.3
16:05 1010 29.83 839 24.78 6.3 43.3 52 -2.9 26.8
16:10 1010 29.83 839 24.78 6.4 43.5 52 -2.8 26.9
16:15 1010 29.83 839 24.78 6.3 43.3 52 -2.8 26.9
16:20 1010 29.83 839 24.78 6.4 43.4 51 -2.9 26.8
16:25 1010 29.83 839 24.78 6.3 43.3 53 -2.5 27.5
16:30 1010 29.83 839 24.78 6 42.8 55 -2.4 27.7
16:35 1010 29.83 839 24.78 6 42.8 55 -2.3 27.8
16:40 1009 29.8 839 24.78 6 42.7 56 -2.2 28.1
16:45 1009 29.8 839 24.78 5.9 42.7 55 -2.4 27.7
16:50 1010 29.83 839 24.78 6 42.7 56 -2.2 28.1
16:55 1010 29.83 839 24.78 5.9 42.6 56 -2.3 27.9
17:00 1010 29.83 839 24.78 5.8 42.5 56 -2.3 27.9
17:05 1009 29.8 839 24.78 5.9 42.6 55 -2.5 27.4
17:10 1009 29.8 838 24.75 6.2 43.1 53 -2.7 27.1
17:15 1009 29.8 838 24.75 6.3 43.3 53 -2.6 27.2
17:20 1009 29.8 838 24.75 6.2 43.2 53 -2.7 27.2
17:25 1009 29.8 838 24.75 6.2 43.2 53 -2.6 27.4
17:30 1009 29.8 838 24.75 6.1 43.1 53 -2.6 27.2
17:35 1009 29.8 838 24.75 6.2 43.2 53 -2.7 27.2
17:40 1009 29.8 838 24.75 6.4 43.5 51 -2.9 26.8
17:45 1009 29.8 838 24.75 6.5 43.8 52 -2.6 27.4
17:50 1009 29.8 838 24.75 6.3 43.3 53 -2.5 27.4
17:55 1009 29.8 838 24.75 6.2 43.2 54 -2.5 27.5
18:00 1009 29.8 838 24.75 6.2 43.2 54 -2.5 27.6
18:05 1009 29.8 838 24.75 6.3 43.4 51 -3 26.6
18:10 1009 29.8 838 24.75 6.6 43.9 51 -2.8 26.9
18:15 1009 29.8 838 24.75 6.6 43.9 52 -2.6 27.3
18:20 1008 29.77 838 24.75 6.5 43.8 51 -2.8 27
18:25 1008 29.77 838 24.75 6.4 43.5 53 -2.4 27.7
18:30 1008 29.77 838 24.75 6.1 43 54 -2.5 27.5
18:35 1008 29.77 838 24.75 5.9 42.6 55 -2.3 27.8
18:40 1008 29.77 838 24.75 5.9 42.5 54 -2.6 27.2
18:45 1008 29.77 838 24.75 6.1 43 53 -2.6 27.3
18:50 1008 29.77 838 24.75 6.2 43.1 54 -2.5 27.5
18:55 1008 29.77 838 24.75 6 42.8 54 -2.6 27.3
19:00 1008 29.77 837 24.72 5.9 42.5 55 -2.5 27.5
19:05 1008 29.77 837 24.72 5.8 42.4 55 -2.5 27.5
19:10 1008 29.77 837 24.72 5.6 42.1 55 -2.6 27.3
19:15 1008 29.77 837 24.72 5.4 41.8 56 -2.5 27.4
19:20 1008 29.77 837 24.72 5.1 41.2 59 -2.2 28
19:25 1008 29.77 837 24.72 4.8 40.7 59 -2.4 27.6
19:30 1008 29.77 837 24.72 4.9 40.9 59 -2.4 27.6
19:35 1008 29.77 837 24.72 5 41 59 -2.3 27.8
19:40 1008 29.77 837 24.72 5 40.9 56 -3 26.6
19:45 1008 29.77 837 24.72 5.3 41.5 56 -2.7 27.1
19:50 1008 29.77 837 24.72 5.3 41.5 56 -2.8 27
19:55 1008 29.77 837 24.72 5.4 41.7 56 -2.7 27.2
20:00 1008 29.77 837 24.72 5.7 42.3 56 -2.5 27.6
20:05 1008 29.77 837 24.72 5.9 42.5 57 -2.1 28.3
20:10 1008 29.77 837 24.72 5.7 42.3 58 -1.8 28.8
20:15 1007 29.74 837 24.72 5.5 42 60 -1.6 29.1
20:20 1008 29.77 837 24.72 5.4 41.7 61 -1.4 29.4
20:25 1008 29.77 837 24.72 5.5 41.9 59 -1.9 28.7
20:30 1007 29.74 837 24.72 5.8 42.5 57 -2 28.4
20:35 1007 29.74 837 24.72 6.2 43.1 56 -2 28.4
20:40 1007 29.74 836 24.69 6.3 43.4 56 -1.9 28.6
20:45 1007 29.74 836 24.69 6.4 43.4 55 -2.1 28.2
20:50 1007 29.74 836 24.69 6.4 43.6 54 -2.1 28.3
20:55 1007 29.74 836 24.69 6.5 43.7 54 -2.1 28.2
21:00 1007 29.74 837 24.72 6.5 43.7 55 -1.8 28.7
21:05 1007 29.74 837 24.72 6.3 43.4 55 -1.9 28.5
21:10 1007 29.74 836 24.69 6.4 43.5 55 -2.1 28.2
21:15 1007 29.74 836 24.69 6.4 43.6 55 -1.8 28.8
21:20 1007 29.74 836 24.69 6.3 43.4 55 -2 28.3
21:25 1007 29.74 836 24.69 6.5 43.7 55 -2 28.5
21:30 1007 29.74 836 24.69 6.3 43.4 55 -2 28.4
21:35 1007 29.74 836 24.69 6.3 43.4 56 -1.9 28.6
21:40 1007 29.74 836 24.69 6.1 42.9 58 -1.6 29.2
21:45 1007 29.74 836 24.69 5.8 42.5 59 -1.5 29.3
21:50 1007 29.74 836 24.69 5.7 42.2 60 -1.6 29.2
21:55 1007 29.74 836 24.69 5.6 42.1 60 -1.6 29.1
22:00 1007 29.74 836 24.69 5.8 42.5 57 -2.1 28.3
22:05 1007 29.74 836 24.69 6.2 43.2 56 -1.9 28.5
22:10 1007 29.74 836 24.69 6.5 43.7 55 -1.8 28.7
22:15 1007 29.74 836 24.69 6.5 43.8 55 -1.8 28.8
22:20 1007 29.74 836 24.69 6.5 43.7 56 -1.7 29
22:25 1007 29.74 836 24.69 6.4 43.5 57 -1.5 29.4
22:30 1007 29.74 836 24.69 6.2 43.2 57 -1.6 29.1
22:35 1007 29.74 836 24.69 6.2 43.1 58 -1.4 29.4
22:40 1007 29.74 836 24.69 6.1 42.9 59 -1.4 29.4
22:45 1007 29.74 836 24.69 5.9 42.6 59 -1.4 29.4
22:50 1006 29.71 836 24.69 5.8 42.5 60 -1.4 29.5
22:55 1006 29.71 836 24.69 5.7 42.2 60 -1.4 29.4
23:00 1006 29.71 835 24.66 5.5 41.9 61 -1.4 29.5
23:05 1006 29.71 836 24.69 5.4 41.6 61 -1.5 29.3
23:10 1006 29.71 836 24.69 5.3 41.6 61 -1.5 29.3
23:15 1006 29.71 836 24.69 5 40.9 63 -1.4 29.5
23:20 1006 29.71 836 24.69 4.6 40.3 65 -1.4 29.5
23:25 1006 29.71 836 24.69 4.4 39.9 66 -1.4 29.4
23:30 1006 29.71 836 24.69 4.5 40.1 64 -1.6 29
23:35 1006 29.71 836 24.69 4.7 40.5 63 -1.6 29.1
23:40 1006 29.71 835 24.66 5 41 62 -1.6 29.1
23:45 1006 29.71 835 24.66 5.3 41.5 62 -1.4 29.5
23:50 1006 29.71 835 24.66 5.1 41.1 62 -1.6 29.2
23:55 1006 29.71 836 24.69 5.4 41.7 61 -1.4 29.4
24:00 1006 29.71 836 24.69 5.4 41.7 62 -1.3 29.7